Time;durP1;ratioP1;P1;durP2;ratioP2;P2;SDS_P1;SDS_P2;PMS_P1;PMS_P2;Temp;Humidity;BMP_temperature;BMP_pressure;BME280_temperature;BME280_humidity;BME280_pressure;Samples;Min_cycle;Max_cycle;Signal;HPM_P1;HPM_P2
2020/12/18 00:00:21;;;;;;;15.88;10.85;;;;;;;;;;5082236;28;20230;-73
2020/12/18 00:02:47;;;;;;;16.05;10.80;;;;;;;;;;5071557;28;20219;-76
2020/12/18 00:05:13;;;;;;;14.10;11.15;;;;;;;;;;5080243;28;20190;-73
2020/12/18 00:07:40;;;;;;;14.15;10.73;;;;;;;;;;5078110;28;20639;-74
2020/12/18 00:10:06;;;;;;;12.65;10.85;;;;;;;;;;5077407;28;20200;-74
2020/12/18 00:12:32;;;;;;;14.70;11.60;;;;;;;;;;5083241;28;20518;-74
2020/12/18 00:14:58;;;;;;;14.25;11.00;;;;;;;;;;5093668;28;20629;-73
2020/12/18 00:17:24;;;;;;;15.02;11.77;;;;;;;;;;5090628;28;20552;-74
2020/12/18 00:19:50;;;;;;;13.70;11.65;;;;;;;;;;5079928;28;20264;-73
2020/12/18 00:22:16;;;;;;;16.10;10.77;;;;;;;;;;5074616;28;20175;-75
2020/12/18 00:24:43;;;;;;;15.15;12.00;;;;;;;;;;5091280;28;20186;-74
2020/12/18 00:27:10;;;;;;;17.45;11.98;;;;;;;;;;5089264;28;20204;-75
2020/12/18 00:29:36;;;;;;;15.65;11.88;;;;;;;;;;5090681;28;20191;-74
2020/12/18 00:32:05;;;;;;;14.95;10.77;;;;;;;;;;5079602;28;20179;-74
2020/12/18 00:34:32;;;;;;;13.23;11.55;;;;;;;;;;5071374;28;20211;-75
2020/12/18 00:36:58;;;;;;;15.23;12.77;;;;;;;;;;5071044;28;20183;-74
2020/12/18 00:39:24;;;;;;;20.33;11.77;;;;;;;;;;5086871;28;20293;-74
2020/12/18 00:41:56;;;;;;;13.93;11.55;;;;;;;;;;5091005;28;20199;-74
2020/12/18 00:44:22;;;;;;;14.38;12.02;;;;;;;;;;5082234;28;20188;-74
2020/12/18 00:46:48;;;;;;;15.50;11.82;;;;;;;;;;5070569;28;20184;-75
2020/12/18 00:49:14;;;;;;;15.68;11.73;;;;;;;;;;5087914;28;20214;-75
2020/12/18 00:51:41;;;;;;;17.98;12.55;;;;;;;;;;5090607;28;20175;-74
2020/12/18 00:54:08;;;;;;;15.90;10.85;;;;;;;;;;5089814;28;20190;-75
2020/12/18 00:56:34;;;;;;;14.43;11.98;;;;;;;;;;5080403;28;20704;-73
2020/12/18 00:59:00;;;;;;;16.63;10.85;;;;;;;;;;5081905;28;20215;-73
2020/12/18 01:01:26;;;;;;;20.35;13.07;;;;;;;;;;5070035;28;20176;-77
2020/12/18 01:03:52;;;;;;;15.70;11.30;;;;;;;;;;5080584;28;20179;-76
2020/12/18 01:06:18;;;;;;;16.05;11.75;;;;;;;;;;5070178;28;20222;-74
2020/12/18 01:08:44;;;;;;;16.75;11.77;;;;;;;;;;5069950;28;20284;-74
2020/12/18 01:11:10;;;;;;;17.17;11.95;;;;;;;;;;5095772;28;20267;-75
2020/12/18 01:13:36;;;;;;;12.23;10.93;;;;;;;;;;5081782;28;20171;-76
2020/12/18 01:16:02;;;;;;;16.63;11.57;;;;;;;;;;5089003;28;20666;-75
2020/12/18 01:18:28;;;;;;;16.30;11.70;;;;;;;;;;5094310;28;20253;-74
2020/12/18 01:20:54;;;;;;;14.55;11.98;;;;;;;;;;5093959;28;20921;-74
2020/12/18 01:23:20;;;;;;;12.77;11.27;;;;;;;;;;5094678;28;20508;-76
2020/12/18 01:25:47;;;;;;;14.25;11.05;;;;;;;;;;5094148;28;20171;-77
2020/12/18 01:28:13;;;;;;;16.25;11.45;;;;;;;;;;5093678;28;20235;-75
2020/12/18 01:30:39;;;;;;;15.20;10.77;;;;;;;;;;5094696;28;20537;-76
2020/12/18 01:33:05;;;;;;;13.13;11.25;;;;;;;;;;5082777;28;20176;-76
2020/12/18 01:35:31;;;;;;;14.25;11.10;;;;;;;;;;5073663;28;20172;-75
2020/12/18 01:37:57;;;;;;;13.45;10.85;;;;;;;;;;5074315;28;20256;-77
2020/12/18 01:40:23;;;;;;;12.68;10.55;;;;;;;;;;5075007;28;20188;-75
2020/12/18 01:42:49;;;;;;;17.17;11.05;;;;;;;;;;5074028;28;20178;-75
2020/12/18 01:45:15;;;;;;;13.25;11.30;;;;;;;;;;5073654;28;20172;-75
2020/12/18 01:47:42;;;;;;;13.48;10.73;;;;;;;;;;5084293;28;20206;-75
2020/12/18 01:50:08;;;;;;;15.93;11.18;;;;;;;;;;5092411;28;20248;-74
2020/12/18 01:52:35;;;;;;;12.23;9.85;;;;;;;;;;5093514;28;20175;-77
2020/12/18 01:55:05;;;;;;;15.23;11.80;;;;;;;;;;5090279;28;20632;-74
2020/12/18 01:57:36;;;;;;;13.60;10.90;;;;;;;;;;5081715;28;20177;-75
2020/12/18 02:00:04;;;;;;;14.73;11.05;;;;;;;;;;5091837;28;20191;-76
2020/12/18 02:02:30;;;;;;;14.55;11.32;;;;;;;;;;5080289;28;20522;-75
2020/12/18 02:04:56;;;;;;;15.15;11.13;;;;;;;;;;5092163;28;20629;-75
2020/12/18 02:07:28;;;;;;;14.57;11.57;;;;;;;;;;5091670;28;20698;-75
2020/12/18 02:09:54;;;;;;;15.63;11.27;;;;;;;;;;5092700;28;20200;-75
2020/12/18 02:12:20;;;;;;;11.80;10.48;;;;;;;;;;5092520;28;20573;-74
2020/12/18 02:14:48;;;;;;;14.85;11.43;;;;;;;;;;5082097;28;20176;-76
2020/12/18 02:17:14;;;;;;;14.20;12.35;;;;;;;;;;5072838;28;20229;-75
2020/12/18 02:19:42;;;;;;;13.88;12.30;;;;;;;;;;5083095;28;20215;-73
2020/12/18 02:22:15;;;;;;;15.65;12.27;;;;;;;;;;5093174;28;20181;-76
2020/12/18 02:24:47;;;;;;;19.92;11.90;;;;;;;;;;5092204;28;20213;-73
2020/12/18 02:27:13;;;;;;;15.23;11.23;;;;;;;;;;5092583;28;20195;-73
2020/12/18 02:29:39;;;;;;;21.05;13.27;;;;;;;;;;5092664;28;20261;-75
2020/12/18 02:32:05;;;;;;;15.35;11.95;;;;;;;;;;5075635;28;20168;-75
2020/12/18 02:34:33;;;;;;;16.35;12.20;;;;;;;;;;5085974;28;20195;-78
2020/12/18 02:37:00;;;;;;;17.25;12.75;;;;;;;;;;5088881;28;20184;-75
2020/12/18 02:39:26;;;;;;;14.95;12.35;;;;;;;;;;5074275;28;20196;-75
2020/12/18 02:41:52;;;;;;;14.88;13.02;;;;;;;;;;5096270;28;20182;-74
2020/12/18 02:44:18;;;;;;;18.27;12.80;;;;;;;;;;5096420;28;20640;-78
2020/12/18 02:46:44;;;;;;;15.00;12.65;;;;;;;;;;5096437;28;21087;-76
2020/12/18 02:49:10;;;;;;;15.68;12.85;;;;;;;;;;5084778;28;20195;-74
2020/12/18 02:51:36;;;;;;;15.90;13.30;;;;;;;;;;5087538;28;20179;-74
2020/12/18 02:54:02;;;;;;;14.77;13.15;;;;;;;;;;5088209;28;20176;-75
2020/12/18 02:56:29;;;;;;;18.25;13.07;;;;;;;;;;5090531;28;20199;-76
2020/12/18 02:58:55;;;;;;;16.40;13.00;;;;;;;;;;5086168;28;20648;-76
2020/12/18 03:01:21;;;;;;;16.90;13.60;;;;;;;;;;5086890;28;20176;-75
2020/12/18 03:03:48;;;;;;;17.77;13.20;;;;;;;;;;5093777;28;20239;-77
2020/12/18 03:06:14;;;;;;;16.30;13.98;;;;;;;;;;5092945;28;20574;-74
2020/12/18 03:08:40;;;;;;;16.88;12.80;;;;;;;;;;5083086;28;20244;-76
2020/12/18 03:11:07;;;;;;;16.38;14.60;;;;;;;;;;5102602;28;20474;-75
2020/12/18 03:13:33;;;;;;;19.33;12.55;;;;;;;;;;5095335;28;20233;-75
2020/12/18 03:16:00;;;;;;;17.83;13.85;;;;;;;;;;5076389;28;20200;-75
2020/12/18 03:18:26;;;;;;;15.40;13.40;;;;;;;;;;5077646;28;20230;-75
2020/12/18 03:20:52;;;;;;;20.40;13.57;;;;;;;;;;5083431;28;20234;-75
2020/12/18 03:23:18;;;;;;;18.17;14.35;;;;;;;;;;5097187;28;20269;-76
2020/12/18 03:25:44;;;;;;;19.10;14.77;;;;;;;;;;5098467;28;20175;-74
2020/12/18 03:28:10;;;;;;;17.25;14.55;;;;;;;;;;5097800;28;20210;-74
2020/12/18 03:30:36;;;;;;;15.68;14.07;;;;;;;;;;5089801;28;20284;-75
2020/12/18 03:33:03;;;;;;;17.63;13.75;;;;;;;;;;5081284;28;20270;-75
2020/12/18 03:35:29;;;;;;;21.95;14.02;;;;;;;;;;5095015;28;20175;-74
2020/12/18 03:37:56;;;;;;;18.77;14.85;;;;;;;;;;5096113;28;20183;-76
2020/12/18 03:40:22;;;;;;;21.00;14.38;;;;;;;;;;5086456;28;20202;-74
2020/12/18 03:42:48;;;;;;;17.42;14.95;;;;;;;;;;5088848;28;20172;-74
2020/12/18 03:45:14;;;;;;;17.75;14.45;;;;;;;;;;5091053;28;20595;-75
2020/12/18 03:47:40;;;;;;;20.45;14.93;;;;;;;;;;5095781;28;20713;-74
2020/12/18 03:50:06;;;;;;;14.77;13.27;;;;;;;;;;5095706;28;20553;-74
2020/12/18 03:52:32;;;;;;;18.17;14.80;;;;;;;;;;5094945;28;20172;-74
2020/12/18 03:54:58;;;;;;;17.75;13.90;;;;;;;;;;5095469;28;20187;-74
2020/12/18 03:57:25;;;;;;;15.90;13.93;;;;;;;;;;5088278;28;20176;-73
2020/12/18 03:59:51;;;;;;;17.15;13.80;;;;;;;;;;5075282;28;20207;-75
2020/12/18 04:02:17;;;;;;;18.25;14.52;;;;;;;;;;5086207;28;20184;-76
2020/12/18 04:04:43;;;;;;;15.95;13.80;;;;;;;;;;5093413;28;20213;-74
2020/12/18 04:07:13;;;;;;;19.70;15.15;;;;;;;;;;5088494;28;20337;-74
2020/12/18 04:09:40;;;;;;;16.77;14.50;;;;;;;;;;5098606;28;20191;-74
2020/12/18 04:12:06;;;;;;;15.95;13.70;;;;;;;;;;5088815;28;20516;-75
2020/12/18 04:14:32;;;;;;;19.98;14.85;;;;;;;;;;5094946;28;20172;-77
2020/12/18 04:16:58;;;;;;;17.23;15.52;;;;;;;;;;5095318;28;20174;-75
2020/12/18 04:19:24;;;;;;;17.73;14.50;;;;;;;;;;5094175;28;20286;-76
2020/12/18 04:21:50;;;;;;;19.63;15.23;;;;;;;;;;5075063;28;20172;-78
2020/12/18 04:24:16;;;;;;;18.38;13.82;;;;;;;;;;5083998;28;20178;-75
2020/12/18 04:26:42;;;;;;;19.65;15.98;;;;;;;;;;5087285;28;20187;-73
2020/12/18 04:29:09;;;;;;;19.13;14.07;;;;;;;;;;5094280;28;20206;-75
2020/12/18 04:31:35;;;;;;;20.25;14.38;;;;;;;;;;5094916;28;20459;-74
2020/12/18 04:34:01;;;;;;;22.88;15.35;;;;;;;;;;5078984;28;20313;-75
2020/12/18 04:36:27;;;;;;;18.00;14.70;;;;;;;;;;5080546;28;20214;-76
2020/12/18 04:38:53;;;;;;;16.25;14.50;;;;;;;;;;5080832;28;20223;-76
2020/12/18 04:41:19;;;;;;;18.45;14.38;;;;;;;;;;5094175;28;20501;-75
2020/12/18 04:43:45;;;;;;;16.75;14.23;;;;;;;;;;5092718;28;20233;-75
2020/12/18 04:46:16;;;;;;;18.38;14.63;;;;;;;;;;5093316;28;20182;-74
2020/12/18 04:48:43;;;;;;;19.00;15.48;;;;;;;;;;5078360;28;20632;-74
2020/12/18 04:51:12;;;;;;;19.35;14.80;;;;;;;;;;5078859;28;20172;-74
2020/12/18 04:53:39;;;;;;;18.35;15.43;;;;;;;;;;5076793;28;20167;-75
2020/12/18 04:56:12;;;;;;;17.95;14.95;;;;;;;;;;5087806;28;20528;-76
2020/12/18 04:58:38;;;;;;;18.20;15.50;;;;;;;;;;5082445;28;20266;-77
2020/12/18 05:01:06;;;;;;;20.88;15.98;;;;;;;;;;5074989;28;20195;-74
2020/12/18 05:03:33;;;;;;;20.10;14.70;;;;;;;;;;5071930;28;20656;-74
2020/12/18 05:06:06;;;;;;;17.52;14.30;;;;;;;;;;5092922;28;20592;-77
2020/12/18 05:08:32;;;;;;;21.83;14.93;;;;;;;;;;5091935;28;20199;-76
2020/12/18 05:10:58;;;;;;;17.77;15.48;;;;;;;;;;5087669;28;20175;-76
2020/12/18 05:13:25;;;;;;;17.55;14.50;;;;;;;;;;5082319;28;20167;-75
2020/12/18 05:15:52;;;;;;;16.10;14.38;;;;;;;;;;5087160;28;20179;-76
2020/12/18 05:18:21;;;;;;;17.58;14.00;;;;;;;;;;5094049;28;20274;-77
2020/12/18 05:20:48;;;;;;;16.92;13.00;;;;;;;;;;5093784;28;20175;-77
2020/12/18 05:23:14;;;;;;;16.13;14.43;;;;;;;;;;5090406;28;20183;-77
2020/12/18 05:25:40;;;;;;;16.10;13.60;;;;;;;;;;5092281;28;20252;-74
2020/12/18 05:28:06;;;;;;;22.23;14.40;;;;;;;;;;5080496;28;20202;-73
2020/12/18 05:30:33;;;;;;;17.58;13.65;;;;;;;;;;5073254;28;20196;-75
2020/12/18 05:32:59;;;;;;;19.75;13.68;;;;;;;;;;5092485;28;20233;-76
2020/12/18 05:35:25;;;;;;;15.95;13.38;;;;;;;;;;5093496;28;20586;-74
2020/12/18 05:37:51;;;;;;;20.73;13.13;;;;;;;;;;5091864;28;20536;-75
2020/12/18 05:40:18;;;;;;;15.43;11.93;;;;;;;;;;5093075;28;20282;-75
2020/12/18 05:42:46;;;;;;;17.02;13.65;;;;;;;;;;5085059;28;20184;-76
2020/12/18 05:45:13;;;;;;;18.17;13.50;;;;;;;;;;5093095;28;20187;-76
2020/12/18 05:47:59;;;;;;;19.00;14.32;;;;;;;;;;5093229;28;20278;-75
2020/12/18 05:50:32;;;;;;;17.42;12.88;;;;;;;;;;5092051;28;20195;-75
2020/12/18 05:53:00;;;;;;;23.50;15.93;;;;;;;;;;5083559;28;20255;-75
2020/12/18 05:55:26;;;;;;;20.55;15.02;;;;;;;;;;5072917;28;20184;-76
2020/12/18 05:57:53;;;;;;;16.25;13.63;;;;;;;;;;5093156;28;20180;-78
2020/12/18 06:00:20;;;;;;;19.45;14.68;;;;;;;;;;5076622;28;20233;-77
2020/12/18 06:02:49;;;;;;;20.27;14.52;;;;;;;;;;5073357;28;20168;-77
2020/12/18 06:05:15;;;;;;;16.23;13.90;;;;;;;;;;5086591;28;20600;-76
2020/12/18 06:07:41;;;;;;;23.10;15.10;;;;;;;;;;5073042;28;20236;-75
2020/12/18 06:10:07;;;;;;;20.58;15.07;;;;;;;;;;5100744;28;20574;-76
2020/12/18 06:12:33;;;;;;;17.45;14.05;;;;;;;;;;5078585;28;20533;-76
2020/12/18 06:15:01;;;;;;;20.08;15.88;;;;;;;;;;5092191;28;20529;-75
2020/12/18 06:17:28;;;;;;;19.20;13.60;;;;;;;;;;5087894;28;20184;-75
2020/12/18 06:19:58;;;;;;;21.17;15.70;;;;;;;;;;5079744;28;20206;-74
2020/12/18 06:22:24;;;;;;;23.85;15.68;;;;;;;;;;5090154;28;20582;-77
2020/12/18 06:24:50;;;;;;;18.90;15.35;;;;;;;;;;5092581;28;20179;-73
2020/12/18 06:27:17;;;;;;;22.88;16.55;;;;;;;;;;5073461;28;20209;-75
2020/12/18 06:29:43;;;;;;;18.27;16.15;;;;;;;;;;5072589;28;20688;-77
2020/12/18 06:32:24;;;;;;;26.48;17.42;;;;;;;;;;5072605;28;20188;-74
2020/12/18 06:34:51;;;;;;;22.40;16.42;;;;;;;;;;5090477;28;20590;-74
2020/12/18 06:37:27;;;;;;;24.63;17.30;;;;;;;;;;5095047;28;20266;-74
2020/12/18 06:39:53;;;;;;;27.42;19.15;;;;;;;;;;5095031;28;20207;-75
2020/12/18 06:42:23;;;;;;;22.17;17.33;;;;;;;;;;5092669;28;20187;-75
2020/12/18 06:44:50;;;;;;;27.77;18.08;;;;;;;;;;5091826;28;20517;-77
2020/12/18 06:47:23;;;;;;;22.60;16.95;;;;;;;;;;5081498;28;20295;-76
2020/12/18 06:49:58;;;;;;;25.52;17.60;;;;;;;;;;5072768;28;20553;-75
2020/12/18 06:52:43;;;;;;;23.30;16.30;;;;;;;;;;5081644;28;20182;-75
2020/12/18 06:55:13;;;;;;;26.45;16.00;;;;;;;;;;5090004;28;20254;-74
2020/12/18 06:57:39;;;;;;;22.75;17.23;;;;;;;;;;5092668;28;20186;-75
2020/12/18 07:00:24;;;;;;;22.50;16.48;;;;;;;;;;5092613;28;20203;-76
2020/12/18 07:02:50;;;;;;;24.08;17.30;;;;;;;;;;5092690;28;20175;-76
2020/12/18 07:05:36;;;;;;;27.85;15.77;;;;;;;;;;5079835;28;20526;-75
2020/12/18 07:08:23;;;;;;;23.38;17.02;;;;;;;;;;5079388;28;20229;-77
2020/12/18 07:10:49;;;;;;;29.83;15.75;;;;;;;;;;5095233;28;20187;-75
2020/12/18 07:13:16;;;;;;;21.05;15.63;;;;;;;;;;5090554;28;20233;-77
2020/12/18 07:15:45;;;;;;;25.05;16.75;;;;;;;;;;5090915;28;20250;-75
2020/12/18 07:18:16;;;;;;;21.30;14.90;;;;;;;;;;5091523;28;20182;-73
2020/12/18 07:20:47;;;;;;;19.05;14.52;;;;;;;;;;5080949;28;20195;-77
2020/12/18 07:23:13;;;;;;;21.65;14.02;;;;;;;;;;5078763;28;20284;-77
2020/12/18 07:25:39;;;;;;;21.50;13.48;;;;;;;;;;5089884;28;20184;-75
2020/12/18 07:28:06;;;;;;;21.13;15.77;;;;;;;;;;5096822;28;20644;-75
2020/12/18 07:30:42;;;;;;;27.50;15.40;;;;;;;;;;5095931;28;20282;-75
2020/12/18 07:33:09;;;;;;;21.85;14.05;;;;;;;;;;5094486;28;20179;-76
2020/12/18 07:35:42;;;;;;;20.55;14.20;;;;;;;;;;5075541;28;20221;-76
2020/12/18 07:38:28;;;;;;;22.58;14.40;;;;;;;;;;5075957;28;20263;-75
2020/12/18 07:40:55;;;;;;;17.60;12.50;;;;;;;;;;5088491;28;20183;-74
2020/12/18 07:43:22;;;;;;;18.42;13.65;;;;;;;;;;5096418;28;20232;-76
2020/12/18 07:45:57;;;;;;;19.38;12.35;;;;;;;;;;5095411;28;20202;-74
2020/12/18 07:48:27;;;;;;;17.92;14.02;;;;;;;;;;5096011;28;20205;-76
2020/12/18 07:50:57;;;;;;;14.82;11.65;;;;;;;;;;5090058;28;20683;-75
2020/12/18 07:53:24;;;;;;;20.25;12.27;;;;;;;;;;5074596;28;20195;-75
2020/12/18 07:56:04;;;;;;;21.27;11.90;;;;;;;;;;5080872;28;20180;-76
2020/12/18 07:58:30;;;;;;;20.92;12.10;;;;;;;;;;5079442;28;20211;-74
2020/12/18 08:01:10;;;;;;;17.98;11.30;;;;;;;;;;5073791;28;20594;-75
2020/12/18 08:03:38;;;;;;;15.13;10.30;;;;;;;;;;5088144;28;20205;-75
2020/12/18 08:06:04;;;;;;;13.85;10.48;;;;;;;;;;5091177;28;20176;-76
2020/12/18 08:08:34;;;;;;;14.27;11.50;;;;;;;;;;5086060;28;21011;-75
2020/12/18 08:11:03;;;;;;;13.18;9.77;;;;;;;;;;5083985;28;20185;-75
2020/12/18 08:13:30;;;;;;;15.13;10.45;;;;;;;;;;5078967;28;20663;-76
2020/12/18 08:16:09;;;;;;;17.73;10.10;;;;;;;;;;5083059;28;20179;-74
2020/12/18 08:18:36;;;;;;;15.98;9.70;;;;;;;;;;5087144;28;20247;-75
2020/12/18 08:21:02;;;;;;;12.57;8.52;;;;;;;;;;5090926;28;20244;-75
2020/12/18 08:23:29;;;;;;;11.55;8.27;;;;;;;;;;5084547;28;20178;-76
2020/12/18 08:25:56;;;;;;;11.00;8.57;;;;;;;;;;5079511;28;20193;-74
2020/12/18 08:28:24;;;;;;;12.25;8.65;;;;;;;;;;5070866;28;20204;-76
2020/12/18 08:30:50;;;;;;;12.60;9.00;;;;;;;;;;5081609;28;20176;-74
2020/12/18 08:33:19;;;;;;;11.65;8.90;;;;;;;;;;5069454;28;20877;-76
2020/12/18 08:35:52;;;;;;;13.10;10.93;;;;;;;;;;5079935;28;20183;-74
2020/12/18 08:38:18;;;;;;;13.30;9.20;;;;;;;;;;5070683;28;20180;-74
2020/12/18 08:40:45;;;;;;;13.55;10.10;;;;;;;;;;5073087;28;20200;-74
2020/12/18 08:43:11;;;;;;;11.50;9.57;;;;;;;;;;5071759;28;20172;-75
2020/12/18 08:45:44;;;;;;;13.63;10.27;;;;;;;;;;5075750;28;20230;-75
2020/12/18 08:48:10;;;;;;;13.93;11.35;;;;;;;;;;5070460;28;20299;-74
2020/12/18 08:50:37;;;;;;;14.30;12.80;;;;;;;;;;5079839;28;20736;-76
2020/12/18 08:53:21;;;;;;;19.70;15.15;;;;;;;;;;5078089;28;20188;-76
2020/12/18 08:55:47;;;;;;;15.70;11.00;;;;;;;;;;5087688;28;20237;-76
2020/12/18 08:58:13;;;;;;;16.33;11.65;;;;;;;;;;5090060;28;20179;-75
2020/12/18 09:00:39;;;;;;;14.15;11.18;;;;;;;;;;5081619;28;20203;-77
2020/12/18 09:03:07;;;;;;;19.35;12.73;;;;;;;;;;5074393;28;20201;-75
2020/12/18 09:05:34;;;;;;;20.08;14.43;;;;;;;;;;5090162;28;20180;-78
2020/12/18 09:08:16;;;;;;;12.35;9.82;;;;;;;;;;5090228;28;20250;-77
2020/12/18 09:10:45;;;;;;;11.80;9.32;;;;;;;;;;5087823;28;20191;-76
2020/12/18 09:13:16;;;;;;;10.02;8.70;;;;;;;;;;5085182;28;20172;-76
2020/12/18 09:15:43;;;;;;;12.40;8.02;;;;;;;;;;5078086;28;20172;-74
2020/12/18 09:18:10;;;;;;;8.95;7.65;;;;;;;;;;5090031;28;20179;-75
2020/12/18 09:20:37;;;;;;;11.95;8.98;;;;;;;;;;5088582;28;20203;-74
2020/12/18 09:23:05;;;;;;;11.27;7.10;;;;;;;;;;5080226;28;20215;-74
2020/12/18 09:25:35;;;;;;;8.20;6.85;;;;;;;;;;5069100;28;20252;-73
2020/12/18 09:28:01;;;;;;;7.85;7.07;;;;;;;;;;5072052;28;20207;-75
2020/12/18 09:30:28;;;;;;;6.53;5.85;;;;;;;;;;5075822;28;20200;-74
2020/12/18 09:33:08;;;;;;;8.98;6.90;;;;;;;;;;5069247;28;20180;-74
2020/12/18 09:35:34;;;;;;;7.05;5.93;;;;;;;;;;5083049;28;20198;-76
2020/12/18 09:38:00;;;;;;;11.85;6.60;;;;;;;;;;5074672;28;20200;-76
2020/12/18 09:40:26;;;;;;;7.28;6.57;;;;;;;;;;5085280;28;20195;-76
2020/12/18 09:42:52;;;;;;;6.30;5.63;;;;;;;;;;5089211;28;20171;-75
2020/12/18 09:45:18;;;;;;;8.68;5.90;;;;;;;;;;5083259;28;20179;-75
2020/12/18 09:47:44;;;;;;;7.10;5.38;;;;;;;;;;5082830;28;20207;-75
2020/12/18 09:50:10;;;;;;;6.40;5.40;;;;;;;;;;5080561;28;20191;-74
2020/12/18 09:52:36;;;;;;;6.13;5.28;;;;;;;;;;5082815;28;20172;-76
2020/12/18 09:55:02;;;;;;;5.95;5.45;;;;;;;;;;5088068;28;20183;-77
2020/12/18 09:57:29;;;;;;;7.80;5.43;;;;;;;;;;5089565;28;20183;-76
2020/12/18 09:59:55;;;;;;;8.13;6.25;;;;;;;;;;5080854;28;20195;-74
2020/12/18 10:02:21;;;;;;;7.82;5.15;;;;;;;;;;5084277;28;20743;-75
2020/12/18 10:04:47;;;;;;;10.27;6.13;;;;;;;;;;5081714;28;20270;-76
2020/12/18 10:07:13;;;;;;;5.65;4.72;;;;;;;;;;5088909;28;20206;-75
2020/12/18 10:09:39;;;;;;;5.80;5.30;;;;;;;;;;5087082;28;20206;-75
2020/12/18 10:12:05;;;;;;;8.93;5.80;;;;;;;;;;5080664;28;20181;-75
2020/12/18 10:14:31;;;;;;;7.53;5.13;;;;;;;;;;5090903;28;20175;-75
2020/12/18 10:16:57;;;;;;;20.05;13.52;;;;;;;;;;5090621;28;20184;-76
2020/12/18 10:19:23;;;;;;;17.95;14.07;;;;;;;;;;5090891;28;20219;-76
2020/12/18 10:21:49;;;;;;;5.85;5.32;;;;;;;;;;5089973;28;20179;-76
2020/12/18 10:24:15;;;;;;;5.82;5.18;;;;;;;;;;5078360;28;20248;-74
2020/12/18 10:26:41;;;;;;;7.65;5.03;;;;;;;;;;5083462;28;20183;-76
2020/12/18 10:29:08;;;;;;;5.90;5.07;;;;;;;;;;5094674;28;20218;-75
2020/12/18 10:31:34;;;;;;;8.70;5.15;;;;;;;;;;5093948;28;20590;-75
2020/12/18 10:34:01;;;;;;;6.10;4.95;;;;;;;;;;5093120;28;20509;-75
2020/12/18 10:36:27;;;;;;;18.95;5.10;;;;;;;;;;5092422;28;20172;-77
2020/12/18 10:38:53;;;;;;;6.82;4.78;;;;;;;;;;5090144;28;20216;-76
2020/12/18 10:41:19;;;;;;;10.35;5.25;;;;;;;;;;5087327;28;20183;-76
2020/12/18 10:43:45;;;;;;;4.97;4.57;;;;;;;;;;5084659;28;20305;-75
2020/12/18 10:46:11;;;;;;;7.72;4.90;;;;;;;;;;5091703;28;20180;-74
2020/12/18 10:48:37;;;;;;;5.80;5.07;;;;;;;;;;5090942;28;20200;-77
2020/12/18 10:51:03;;;;;;;5.95;5.35;;;;;;;;;;5075599;28;20164;-72
2020/12/18 10:53:30;;;;;;;6.75;4.43;;;;;;;;;;5079878;28;20180;-73
2020/12/18 10:55:56;;;;;;;5.13;4.57;;;;;;;;;;5088787;28;20168;-75
2020/12/18 10:58:22;;;;;;;6.75;4.10;;;;;;;;;;5088277;28;20235;-74
2020/12/18 11:00:48;;;;;;;5.47;4.63;;;;;;;;;;5090980;28;20183;-73
2020/12/18 11:03:14;;;;;;;5.90;4.88;;;;;;;;;;5092264;28;20198;-76
2020/12/18 11:05:40;;;;;;;5.65;5.00;;;;;;;;;;5091675;28;20184;-74
2020/12/18 11:08:06;;;;;;;4.70;4.15;;;;;;;;;;5091843;28;20214;-74
2020/12/18 11:10:32;;;;;;;6.35;4.93;;;;;;;;;;5083446;28;20199;-76
2020/12/18 11:12:58;;;;;;;9.80;5.55;;;;;;;;;;5090056;28;20210;-74
2020/12/18 11:15:24;;;;;;;14.05;4.80;;;;;;;;;;5079157;28;20627;-73
2020/12/18 11:17:50;;;;;;;8.07;4.22;;;;;;;;;;5092608;28;20605;-75
2020/12/18 11:20:16;;;;;;;7.10;4.93;;;;;;;;;;5085350;28;20669;-75
2020/12/18 11:22:42;;;;;;;6.28;4.32;;;;;;;;;;5078156;28;20198;-78
2020/12/18 11:25:08;;;;;;;4.25;3.80;;;;;;;;;;5083419;28;20653;-77
2020/12/18 11:27:34;;;;;;;6.75;5.28;;;;;;;;;;5088919;28;20211;-76
2020/12/18 11:30:00;;;;;;;7.97;4.63;;;;;;;;;;5070841;28;20196;-74
2020/12/18 11:32:26;;;;;;;8.27;5.13;;;;;;;;;;5091813;28;20432;-77
2020/12/18 11:34:52;;;;;;;5.60;5.00;;;;;;;;;;5081893;28;20930;-76
2020/12/18 11:37:18;;;;;;;5.60;3.73;;;;;;;;;;5071865;28;20816;-73
2020/12/18 11:39:45;;;;;;;8.07;4.00;;;;;;;;;;5088060;28;20532;-75
2020/12/18 11:42:11;;;;;;;6.13;4.50;;;;;;;;;;5083184;28;20435;-76
2020/12/18 11:44:37;;;;;;;6.67;4.20;;;;;;;;;;5085308;28;20430;-76
2020/12/18 11:47:03;;;;;;;5.87;4.10;;;;;;;;;;5082346;28;20438;-75
2020/12/18 11:49:29;;;;;;;5.57;4.70;;;;;;;;;;5070207;28;20442;-77
2020/12/18 11:51:55;;;;;;;4.83;4.20;;;;;;;;;;5087779;28;20567;-76
2020/12/18 11:54:22;;;;;;;6.73;3.90;;;;;;;;;;5071186;28;20444;-75
2020/12/18 11:56:48;;;;;;;4.57;3.70;;;;;;;;;;5080471;28;20427;-74
2020/12/18 11:59:14;;;;;;;6.33;3.37;;;;;;;;;;5082965;28;20864;-75
2020/12/18 12:01:40;;;;;;;5.43;3.57;;;;;;;;;;5088668;28;21013;-76
2020/12/18 12:04:06;;;;;;;3.83;3.43;;;;;;;;;;5071347;28;20523;-75
2020/12/18 12:06:33;;;;;;;7.30;3.70;;;;;;;;;;5083592;28;20436;-77
2020/12/18 12:09:03;;;;;;;5.60;3.73;;;;;;;;;;5075055;28;20465;-75
2020/12/18 12:11:36;;;;;;;13.63;3.60;;;;;;;;;;5084462;28;20430;-76
2020/12/18 12:14:02;;;;;;;3.37;2.97;;;;;;;;;;5082433;28;20540;-73
2020/12/18 12:16:46;;;;;;;6.43;3.50;;;;;;;;;;5086783;28;20426;-74
2020/12/18 12:19:12;;;;;;;4.30;2.67;;;;;;;;;;5091221;28;20478;-76
2020/12/18 12:21:40;;;;;;;6.70;3.33;;;;;;;;;;5091172;28;20428;-77
2020/12/18 12:24:06;;;;;;;6.10;3.30;;;;;;;;;;5072482;28;20622;-74
2020/12/18 12:26:32;;;;;;;4.55;3.15;;;;;;;;;;5086795;28;20179;-77
2020/12/18 12:28:58;;;;;;;4.93;2.75;;;;;;;;;;5079670;28;20305;-76
2020/12/18 12:31:24;;;;;;;4.05;2.75;;;;;;;;;;5086492;28;20255;-74
2020/12/18 12:33:50;;;;;;;6.00;3.70;;;;;;;;;;5074267;28;20186;-76
2020/12/18 12:36:18;;;;;;;4.37;3.97;;;;;;;;;;5090600;28;20471;-76
2020/12/18 12:38:44;;;;;;;5.10;3.13;;;;;;;;;;5084838;28;20445;-75
2020/12/18 12:41:10;;;;;;;4.50;3.13;;;;;;;;;;5090455;28;20419;-76
2020/12/18 12:43:36;;;;;;;3.33;2.53;;;;;;;;;;5090425;28;20830;-76
2020/12/18 12:46:02;;;;;;;3.47;2.63;;;;;;;;;;5090318;28;20864;-77
2020/12/18 12:48:28;;;;;;;5.17;2.53;;;;;;;;;;5089768;28;20508;-75
2020/12/18 12:50:54;;;;;;;5.27;2.60;;;;;;;;;;5088331;28;20429;-75
2020/12/18 12:53:20;;;;;;;3.83;2.83;;;;;;;;;;5086391;28;20422;-75
2020/12/18 12:55:49;;;;;;;4.43;2.80;;;;;;;;;;5082360;28;20432;-77
2020/12/18 12:58:16;;;;;;;4.70;2.70;;;;;;;;;;5079162;28;20425;-74
2020/12/18 13:00:42;;;;;;;3.60;3.13;;;;;;;;;;5088771;28;20446;-77
2020/12/18 13:03:09;;;;;;;3.80;2.70;;;;;;;;;;5091295;28;20426;-76
2020/12/18 13:05:35;;;;;;;4.20;2.90;;;;;;;;;;5091467;28;20430;-74
2020/12/18 13:08:01;;;;;;;4.30;3.33;;;;;;;;;;5090670;28;20471;-74
2020/12/18 13:10:27;;;;;;;8.10;3.00;;;;;;;;;;5092271;28;20439;-75
2020/12/18 13:12:53;;;;;;;5.93;3.03;;;;;;;;;;5090366;28;20429;-74
2020/12/18 13:15:19;;;;;;;4.68;3.20;;;;;;;;;;5089856;28;20175;-77
2020/12/18 13:17:45;;;;;;;3.55;3.08;;;;;;;;;;5089892;28;20179;-77
2020/12/18 13:20:11;;;;;;;5.25;3.70;;;;;;;;;;5086607;28;20199;-77
2020/12/18 13:22:38;;;;;;;9.95;7.70;;;;;;;;;;5074725;28;20210;-77
2020/12/18 13:25:04;;;;;;;3.67;2.75;;;;;;;;;;5085120;28;20218;-74
2020/12/18 13:27:30;;;;;;;6.40;2.90;;;;;;;;;;5089681;28;20623;-75
2020/12/18 13:29:56;;;;;;;5.65;3.03;;;;;;;;;;5072275;28;20574;-75
2020/12/18 13:32:22;;;;;;;3.70;3.17;;;;;;;;;;5082833;28;20175;-74
2020/12/18 13:34:48;;;;;;;5.40;3.20;;;;;;;;;;5085615;28;20184;-77
2020/12/18 13:37:15;;;;;;;10.18;7.50;;;;;;;;;;5078538;28;20187;-76
2020/12/18 13:39:41;;;;;;;6.80;4.10;;;;;;;;;;5083002;28;20199;-74
2020/12/18 13:42:07;;;;;;;4.85;3.40;;;;;;;;;;5089790;28;20548;-75
2020/12/18 13:44:33;;;;;;;4.93;3.38;;;;;;;;;;5089023;28;20175;-76
2020/12/18 13:46:59;;;;;;;6.03;4.05;;;;;;;;;;5089118;28;20177;-78
2020/12/18 13:49:25;;;;;;;7.05;3.83;;;;;;;;;;5089328;28;20299;-76
2020/12/18 13:51:52;;;;;;;6.88;3.33;;;;;;;;;;5085424;28;20191;-74
2020/12/18 13:54:18;;;;;;;6.25;3.58;;;;;;;;;;5083663;28;20718;-77
2020/12/18 13:56:45;;;;;;;6.25;3.70;;;;;;;;;;5082377;28;20987;-77
2020/12/18 13:59:11;;;;;;;6.68;3.42;;;;;;;;;;5090004;28;20196;-76
2020/12/18 14:01:38;;;;;;;3.80;3.25;;;;;;;;;;5088568;28;20182;-77
2020/12/18 14:04:05;;;;;;;5.82;3.55;;;;;;;;;;5089371;28;20184;-74
2020/12/18 14:06:31;;;;;;;6.78;3.60;;;;;;;;;;5086204;28;20657;-76
2020/12/18 14:08:57;;;;;;;7.65;3.22;;;;;;;;;;5084625;28;20285;-77
2020/12/18 14:11:23;;;;;;;8.27;3.28;;;;;;;;;;5081497;28;20176;-75
2020/12/18 14:13:50;;;;;;;7.57;3.35;;;;;;;;;;5081557;28;20236;-76
2020/12/18 14:16:16;;;;;;;4.40;3.50;;;;;;;;;;5091728;28;20405;-75
2020/12/18 14:18:42;;;;;;;7.30;4.10;;;;;;;;;;5084684;28;20184;-74
2020/12/18 14:21:09;;;;;;;5.28;3.55;;;;;;;;;;5076495;28;20199;-78
2020/12/18 14:23:35;;;;;;;6.35;3.70;;;;;;;;;;5083262;28;20545;-74
2020/12/18 14:26:01;;;;;;;16.73;6.97;;;;;;;;;;5073331;28;20258;-77